Search for airport 
image banner adimage banner adimage banner ad
image banner ad

2VE2 - Spring Valley Hospital

Located in Las Vegas, United States

ICAO - 2VE2, IATA -

Data provided by Airmate  

General information

Coordinates: N36°5'28" W115°14'22"
Elevation is 2375 feet MSL.
 
View others Airports in Nevada

Operational data

Special qualification required
Current time UTC:
Current local time:
Weather at : KLAS - Mc Carran Intl ( 8 km )
METAR: KLAS 092056Z VRB03KT 10SM SCT250 28/M12 A2983 RMK AO2 SLP078 T02781117 58028 $
TAF: KLAS 092057Z 0921/1024 10006KT P6SM FEW250 FM092200 23012G20KT P6SM FEW250 FM100400 22010KT P6SM FEW200 FM101500 04009KT P6SM SKC
View NOTAMs / SUP AIP / TFR affecting this airport [VIEW]
Communications frequencies: [VIEW]

Runways:

Airport contact information

Address: Las Vegas United States

Satellite view of 2VE2